createdAt,value
2023-02-06T00:02:23.930Z,0.00
2023-02-06T00:04:51.495Z,0.00
2023-02-06T00:07:19.010Z,-0.04
2023-02-06T00:09:46.540Z,-0.03
2023-02-06T00:12:14.465Z,-0.02
2023-02-06T00:14:43.306Z,-0.06
2023-02-06T00:17:10.802Z,-0.08
2023-02-06T00:19:38.380Z,-0.05
2023-02-06T00:22:05.870Z,0.02
2023-02-06T00:24:33.439Z,0.05
2023-02-06T00:27:01.101Z,0.03
2023-02-06T00:29:28.651Z,0.06
2023-02-06T00:31:57.527Z,0.00
2023-02-06T00:34:25.446Z,0.03
2023-02-06T00:36:53.007Z,-0.02
2023-02-06T00:39:20.806Z,-0.02
2023-02-06T00:41:50.134Z,-0.03
2023-02-06T00:44:18.521Z,-0.07
2023-02-06T00:46:46.101Z,-0.06
2023-02-06T00:49:15.199Z,-0.06
2023-02-06T00:51:42.813Z,-0.01
2023-02-06T00:54:10.610Z,-0.02
2023-02-06T00:56:38.181Z,-0.02
2023-02-06T00:59:05.809Z,-0.04
2023-02-06T01:01:33.445Z,0.02
2023-02-06T01:04:01.761Z,0.05
2023-02-06T01:06:30.677Z,0.02
2023-02-06T01:08:58.203Z,-0.09
2023-02-06T01:11:28.922Z,-0.09
2023-02-06T01:13:56.620Z,-0.03
2023-02-06T01:16:25.764Z,-0.09
2023-02-06T01:18:54.052Z,-0.14
2023-02-06T01:21:23.446Z,-0.13
2023-02-06T01:23:54.756Z,-0.15
2023-02-06T01:26:24.311Z,-0.20
2023-02-06T01:28:51.904Z,-0.16
2023-02-06T01:31:23.269Z,-0.19
2023-02-06T01:33:52.161Z,-0.25
2023-02-06T01:36:20.802Z,-0.21
2023-02-06T01:38:49.270Z,-0.14
2023-02-06T01:41:20.244Z,-0.12
2023-02-06T01:44:07.180Z,-0.03
2023-02-06T01:46:35.025Z,-0.11
2023-02-06T01:49:03.835Z,-0.16
2023-02-06T01:51:33.142Z,-0.19
2023-02-06T01:54:05.429Z,-0.12
2023-02-06T01:56:40.873Z,-0.04
2023-02-06T01:59:08.439Z,-0.09
2023-02-06T02:01:36.557Z,-0.06
2023-02-06T02:04:06.537Z,0.02
2023-02-06T02:06:35.464Z,0.04
2023-02-06T02:09:04.653Z,0.13
2023-02-06T02:11:35.892Z,0.28
2023-02-06T02:14:16.046Z,0.20
2023-02-06T02:16:53.896Z,0.19
2023-02-06T02:19:59.634Z,0.04
2023-02-06T02:22:45.113Z,-0.10
2023-02-06T02:25:43.564Z,-0.32
2023-02-06T02:28:35.670Z,-0.43
2023-02-06T02:31:28.642Z,-0.53
2023-02-06T02:34:32.265Z,-0.54
2023-02-06T02:37:11.152Z,-0.50
2023-02-06T02:39:46.777Z,-0.55
2023-02-06T02:42:24.062Z,-0.47
2023-02-06T02:44:56.244Z,-0.39
2023-02-06T02:47:29.559Z,-0.32
2023-02-06T02:50:01.066Z,-0.27
2023-02-06T02:52:30.680Z,-0.36
2023-02-06T02:54:58.264Z,-0.40
2023-02-06T02:57:30.397Z,-0.47
2023-02-06T03:00:00.570Z,-0.50
2023-02-06T03:02:35.858Z,-0.63
2023-02-06T03:05:06.660Z,-0.62
2023-02-06T03:07:46.198Z,-0.59
2023-02-06T03:10:22.521Z,-0.58
2023-02-06T03:12:56.613Z,-0.61
2023-02-06T03:15:30.652Z,-0.60
2023-02-06T03:18:03.290Z,-0.64
2023-02-06T03:20:32.762Z,-0.64
2023-02-06T03:23:03.823Z,-0.69
2023-02-06T03:25:37.769Z,-0.61
2023-02-06T03:28:11.739Z,-0.65
2023-02-06T03:30:42.276Z,-0.66
2023-02-06T03:33:14.386Z,-0.56
2023-02-06T03:35:42.221Z,-0.54
2023-02-06T03:38:11.507Z,-0.58
2023-02-06T03:40:41.882Z,-0.59
2023-02-06T03:43:12.869Z,-0.62
2023-02-06T03:45:43.627Z,-0.56
2023-02-06T03:48:15.727Z,-0.53
2023-02-06T03:50:47.855Z,-0.59
2023-02-06T03:53:18.289Z,-0.65
2023-02-06T03:55:48.168Z,-0.65
2023-02-06T03:58:15.968Z,-0.67
2023-02-06T04:00:46.732Z,-0.66
2023-02-06T04:03:16.182Z,-0.63
2023-02-06T04:05:43.709Z,-0.57
2023-02-06T04:08:11.261Z,-0.48
2023-02-06T04:10:40.142Z,-0.47
2023-02-06T04:13:07.650Z,-0.48
2023-02-06T04:15:35.627Z,-0.45
2023-02-06T04:18:04.536Z,-0.39
2023-02-06T04:20:32.761Z,-0.37
2023-02-06T04:23:00.425Z,-0.40
2023-02-06T04:25:28.089Z,-0.44
2023-02-06T04:27:57.008Z,-0.53
2023-02-06T04:30:24.630Z,-0.54
2023-02-06T04:32:52.419Z,-0.58
2023-02-06T04:35:20.346Z,-0.53
2023-02-06T04:37:47.845Z,-0.47
2023-02-06T04:40:15.399Z,-0.39
2023-02-06T04:42:42.913Z,-0.35
2023-02-06T04:45:12.031Z,-0.28
2023-02-06T04:47:40.097Z,-0.14
2023-02-06T04:50:08.427Z,-0.13
2023-02-06T04:52:35.945Z,-0.23
2023-02-06T04:55:03.448Z,-0.25
2023-02-06T04:57:30.967Z,-0.31
2023-02-06T04:59:58.464Z,-0.34
2023-02-06T05:02:27.406Z,-0.36
2023-02-06T05:04:54.900Z,-0.39
2023-02-06T05:07:22.512Z,-0.39
2023-02-06T05:09:50.103Z,-0.40
2023-02-06T05:12:17.617Z,-0.43
2023-02-06T05:14:45.218Z,-0.48
2023-02-06T05:17:12.726Z,-0.58
2023-02-06T05:19:41.577Z,-0.62
2023-02-06T05:22:09.330Z,-0.66
2023-02-06T05:24:36.877Z,-0.64
2023-02-06T05:27:04.989Z,-0.70
2023-02-06T05:29:32.552Z,-0.72
2023-02-06T05:32:00.104Z,-0.73
2023-02-06T05:34:27.928Z,-0.76
2023-02-06T05:36:56.851Z,-0.73
2023-02-06T05:39:24.752Z,-0.70
2023-02-06T05:41:52.286Z,-0.53
2023-02-06T05:44:19.829Z,-0.42
2023-02-06T05:46:48.502Z,-0.33
2023-02-06T05:49:16.233Z,-0.28
2023-02-06T05:51:43.835Z,-0.27
2023-02-06T05:54:13.132Z,-0.12
2023-02-06T05:56:40.646Z,-0.08
2023-02-06T05:59:08.143Z,-0.05
2023-02-06T06:01:35.688Z,0.02
2023-02-06T06:04:03.797Z,0.03
2023-02-06T06:06:31.538Z,0.03
2023-02-06T06:09:01.193Z,-0.05
2023-02-06T06:11:30.545Z,-0.10
2023-02-06T06:13:58.093Z,-0.13
2023-02-06T06:16:25.898Z,-0.09
2023-02-06T06:18:53.481Z,-0.24
2023-02-06T06:21:20.969Z,-0.31
2023-02-06T06:23:48.528Z,-0.52
2023-02-06T06:26:16.312Z,-0.59
2023-02-06T06:28:45.182Z,-0.51
2023-02-06T06:31:13.300Z,-0.39
2023-02-06T06:33:41.878Z,-0.27
2023-02-06T06:36:12.900Z,-0.20
2023-02-06T06:38:41.837Z,-0.24
2023-02-06T06:41:09.329Z,-0.21
2023-02-06T06:43:37.018Z,-0.23
2023-02-06T06:46:06.373Z,-0.10
2023-02-06T06:48:36.372Z,-0.26
2023-02-06T06:51:03.952Z,-0.38
2023-02-06T06:53:31.535Z,-0.41
2023-02-06T06:56:03.551Z,-0.35
2023-02-06T06:58:31.368Z,-0.11
2023-02-06T07:00:58.941Z,-0.03
2023-02-06T07:03:28.028Z,0.12
2023-02-06T07:05:55.541Z,0.06
2023-02-06T07:08:23.102Z,-0.03
2023-02-06T07:10:50.724Z,0.04
2023-02-06T07:13:18.332Z,0.20
2023-02-06T07:15:45.876Z,0.21
2023-02-06T07:18:13.397Z,0.17
2023-02-06T07:20:42.301Z,0.28
2023-02-06T07:23:09.810Z,0.33
2023-02-06T07:25:37.532Z,0.38
2023-02-06T07:28:05.386Z,0.48
2023-02-06T07:30:32.979Z,0.53
2023-02-06T07:33:00.579Z,0.54
2023-02-06T07:35:28.225Z,0.40
2023-02-06T07:37:57.190Z,0.34
2023-02-06T07:40:26.249Z,0.31
2023-02-06T07:42:53.822Z,0.36
2023-02-06T07:45:26.870Z,0.46
2023-02-06T07:47:54.733Z,0.50
2023-02-06T07:50:22.261Z,0.66
2023-02-06T07:52:49.821Z,0.85
2023-02-06T07:55:18.850Z,0.94
2023-02-06T07:57:46.382Z,1.01
2023-02-06T08:00:14.947Z,1.11
2023-02-06T08:02:42.980Z,1.17
2023-02-06T08:05:10.489Z,1.22
2023-02-06T08:07:38.126Z,1.32
2023-02-06T08:10:06.435Z,1.31
2023-02-06T08:12:35.259Z,1.46
2023-02-06T08:15:03.725Z,1.57
2023-02-06T08:17:31.276Z,1.71
2023-02-06T08:19:58.773Z,1.74
2023-02-06T08:22:26.413Z,1.84
2023-02-06T08:24:54.046Z,1.84
2023-02-06T08:27:21.674Z,1.84
2023-02-06T08:29:51.613Z,1.93
2023-02-06T08:32:19.184Z,1.94
2023-02-06T08:34:46.769Z,1.85
2023-02-06T08:37:14.387Z,1.54
2023-02-06T08:39:42.057Z,1.47
2023-02-06T08:42:09.566Z,1.46
2023-02-06T08:44:37.297Z,1.49
2023-02-06T08:47:10.415Z,1.59
2023-02-06T08:49:38.707Z,1.62
2023-02-06T08:52:06.717Z,1.69
2023-02-06T08:54:36.334Z,1.69
2023-02-06T08:57:06.498Z,1.70
2023-02-06T08:59:34.793Z,1.64
2023-02-06T09:02:02.564Z,1.68
2023-02-06T09:04:34.510Z,1.61
2023-02-06T09:07:02.080Z,1.57
2023-02-06T09:09:29.622Z,1.61
2023-02-06T09:12:02.071Z,1.65
2023-02-06T09:14:29.781Z,1.69
2023-02-06T09:16:58.093Z,1.78
2023-02-06T09:19:26.128Z,1.87
2023-02-06T09:21:55.152Z,1.85
2023-02-06T09:24:22.826Z,1.97
2023-02-06T09:27:00.210Z,1.96
2023-02-06T09:29:31.308Z,2.00
2023-02-06T09:31:59.290Z,2.10
2023-02-06T09:34:27.970Z,2.18
2023-02-06T09:36:57.704Z,2.20
2023-02-06T09:39:25.710Z,2.23
2023-02-06T09:41:55.906Z,2.35
2023-02-06T09:44:29.024Z,2.33
2023-02-06T09:47:02.008Z,2.38
2023-02-06T09:49:32.691Z,2.43
2023-02-06T09:52:13.666Z,2.50
2023-02-06T09:54:52.106Z,2.53
2023-02-06T09:57:31.195Z,2.64
2023-02-06T10:00:02.011Z,2.74
2023-02-06T10:03:01.836Z,2.80
2023-02-06T10:05:40.686Z,2.87
2023-02-06T10:08:20.196Z,2.94
2023-02-06T10:10:51.639Z,3.01
2023-02-06T10:13:25.269Z,3.11
2023-02-06T10:15:56.527Z,3.24
2023-02-06T10:18:30.513Z,3.27
2023-02-06T10:21:01.642Z,3.45
2023-02-06T10:23:35.236Z,3.37
2023-02-06T10:26:12.265Z,3.57
2023-02-06T10:28:41.400Z,3.67
2023-02-06T10:31:40.377Z,3.75
2023-02-06T10:34:29.671Z,3.92
2023-02-06T10:37:11.270Z,3.90
2023-02-06T10:39:49.497Z,4.08
2023-02-06T10:42:24.513Z,4.12
2023-02-06T10:45:17.126Z,4.26
2023-02-06T10:47:54.218Z,4.26
2023-02-06T10:50:28.423Z,4.26
2023-02-06T10:52:59.581Z,4.26
2023-02-06T10:55:33.637Z,4.35
2023-02-06T10:58:07.766Z,4.44
2023-02-06T11:00:36.081Z,4.29
2023-02-06T11:03:08.485Z,4.32
2023-02-06T11:05:37.409Z,4.24
2023-02-06T11:08:14.710Z,4.19
2023-02-06T11:10:43.735Z,4.14
2023-02-06T11:13:14.821Z,4.09
2023-02-06T11:15:48.955Z,4.12
2023-02-06T11:18:20.362Z,4.28
2023-02-06T11:20:50.022Z,4.18
2023-02-06T11:23:19.800Z,4.22
2023-02-06T11:25:56.676Z,4.18
2023-02-06T11:28:25.105Z,4.11
2023-02-06T11:30:58.395Z,4.13
2023-02-06T11:33:41.814Z,4.03
2023-02-06T11:36:24.789Z,3.86
2023-02-06T11:38:58.037Z,3.87
2023-02-06T11:41:28.067Z,3.82
2023-02-06T11:44:02.330Z,3.73
2023-02-06T11:46:32.301Z,3.74
2023-02-06T11:49:06.122Z,3.66
2023-02-06T11:51:49.762Z,3.63
2023-02-06T11:54:23.632Z,3.64
2023-02-06T11:57:03.174Z,3.68
2023-02-06T11:59:34.322Z,3.61
2023-02-06T12:02:06.882Z,3.73
2023-02-06T12:04:38.675Z,3.56
2023-02-06T12:07:14.766Z,3.56
2023-02-06T12:09:42.486Z,3.37
2023-02-06T12:12:22.815Z,3.40
2023-02-06T12:14:55.125Z,3.23
2023-02-06T12:17:28.115Z,3.18
2023-02-06T12:20:02.151Z,3.21
2023-02-06T12:22:36.085Z,3.26
2023-02-06T12:25:05.418Z,3.38
2023-02-06T12:27:39.268Z,3.31
2023-02-06T12:30:17.823Z,3.35
2023-02-06T12:32:50.854Z,3.42
2023-02-06T12:35:24.552Z,3.50
2023-02-06T12:37:56.299Z,3.52
2023-02-06T12:40:39.946Z,3.48
2023-02-06T12:43:12.097Z,3.37
2023-02-06T12:45:49.788Z,3.38
2023-02-06T12:48:21.409Z,3.47
2023-02-06T12:51:05.589Z,3.49
2023-02-06T12:53:38.360Z,3.59
2023-02-06T12:56:14.359Z,3.57
2023-02-06T12:58:55.036Z,3.74
2023-02-06T13:01:38.088Z,3.86
2023-02-06T13:04:08.161Z,4.10
2023-02-06T13:06:44.772Z,4.08
2023-02-06T13:09:19.437Z,4.13
2023-02-06T13:11:47.093Z,4.12
2023-02-06T13:14:20.697Z,4.06
2023-02-06T13:16:58.112Z,4.05
2023-02-06T13:19:32.608Z,4.14
2023-02-06T13:22:35.028Z,4.42
2023-02-06T13:25:23.102Z,4.58
2023-02-06T13:27:50.778Z,4.93
2023-02-06T13:30:47.772Z,5.15
2023-02-06T13:33:17.388Z,5.34
2023-02-06T13:36:07.997Z,5.38
2023-02-06T13:38:42.242Z,5.42
2023-02-06T13:41:28.149Z,5.46
2023-02-06T13:43:59.027Z,5.68
2023-02-06T13:46:54.457Z,5.93
2023-02-06T13:49:44.415Z,6.16
2023-02-06T13:52:20.679Z,6.09
2023-02-06T13:55:03.815Z,5.96
2023-02-06T13:57:52.271Z,6.16
2023-02-06T14:00:24.309Z,5.96
2023-02-06T14:02:56.672Z,6.00
2023-02-06T14:05:31.769Z,5.81
2023-02-06T14:08:19.737Z,5.76
2023-02-06T14:11:34.706Z,5.83
2023-02-06T14:14:24.760Z,5.73
2023-02-06T14:17:02.654Z,5.71
2023-02-06T14:19:40.678Z,5.76
2023-02-06T14:22:19.153Z,5.59
2023-02-06T14:25:04.522Z,5.41
2023-02-06T14:27:46.585Z,5.36
2023-02-06T14:30:27.806Z,5.20
2023-02-06T14:33:08.096Z,5.06
2023-02-06T14:35:51.470Z,5.05
2023-02-06T14:38:43.542Z,5.26
2023-02-06T14:41:11.595Z,5.29
2023-02-06T14:43:44.028Z,5.41
2023-02-06T14:46:16.699Z,5.43
2023-02-06T14:48:47.903Z,5.68
2023-02-06T14:51:24.316Z,5.79
2023-02-06T14:53:54.352Z,6.22
2023-02-06T14:56:28.501Z,6.35
2023-02-06T14:58:56.328Z,6.46
2023-02-06T15:01:29.139Z,6.30
2023-02-06T15:04:11.245Z,6.29
2023-02-06T15:06:42.347Z,6.22
2023-02-06T15:09:24.824Z,6.22
2023-02-06T15:11:54.031Z,5.98
2023-02-06T15:14:24.556Z,5.85
2023-02-06T15:16:52.693Z,5.63
2023-02-06T15:19:22.772Z,5.68
2023-02-06T15:22:01.660Z,5.45
2023-02-06T15:24:43.359Z,5.41
2023-02-06T15:27:19.848Z,5.26
2023-02-06T15:29:50.034Z,5.15
2023-02-06T15:32:27.813Z,5.02
2023-02-06T15:34:55.635Z,4.96
2023-02-06T15:37:28.726Z,4.90
2023-02-06T15:40:00.591Z,4.90
2023-02-06T15:42:28.282Z,4.78
2023-02-06T15:44:55.969Z,4.65
2023-02-06T15:47:23.769Z,4.59
2023-02-06T15:49:53.206Z,4.45
2023-02-06T15:52:39.388Z,4.32
2023-02-06T15:55:07.259Z,4.29
2023-02-06T15:57:39.257Z,4.23
2023-02-06T16:00:15.503Z,4.19
2023-02-06T16:02:43.164Z,4.10
2023-02-06T16:05:24.909Z,3.97
2023-02-06T16:07:54.769Z,3.90
2023-02-06T16:10:25.896Z,3.88
2023-02-06T16:12:55.124Z,3.87
2023-02-06T16:15:29.458Z,3.81
2023-02-06T16:17:58.224Z,3.74
2023-02-06T16:20:32.302Z,3.68
2023-02-06T16:23:31.784Z,3.68
2023-02-06T16:26:08.506Z,3.41
2023-02-06T16:28:41.884Z,3.15
2023-02-06T16:31:13.763Z,2.91
2023-02-06T16:33:44.100Z,2.64
2023-02-06T16:36:14.161Z,2.44
2023-02-06T16:38:48.374Z,2.42
2023-02-06T16:41:25.958Z,2.53
2023-02-06T16:43:54.588Z,2.46
2023-02-06T16:46:22.442Z,2.40
2023-02-06T16:48:50.150Z,2.39
2023-02-06T16:51:19.674Z,2.30
2023-02-06T16:53:49.866Z,2.34
2023-02-06T16:56:18.950Z,2.43
2023-02-06T16:58:47.113Z,2.47
2023-02-06T17:01:21.872Z,2.44
2023-02-06T17:03:50.222Z,2.39
2023-02-06T17:06:21.113Z,2.43
2023-02-06T17:08:52.698Z,2.50
2023-02-06T17:11:20.494Z,2.37
2023-02-06T17:13:48.222Z,2.29
2023-02-06T17:16:19.646Z,2.30
2023-02-06T17:18:47.943Z,2.32
2023-02-06T17:21:18.049Z,2.29
2023-02-06T17:23:46.255Z,2.30
2023-02-06T17:26:17.659Z,2.23
2023-02-06T17:28:45.720Z,2.27
2023-02-06T17:31:13.531Z,2.12
2023-02-06T17:33:41.133Z,2.00
2023-02-06T17:36:17.197Z,1.99
2023-02-06T17:38:44.991Z,2.12
2023-02-06T17:41:12.746Z,2.03
2023-02-06T17:43:41.725Z,1.92
2023-02-06T17:46:11.805Z,1.83
2023-02-06T17:48:42.500Z,1.74
2023-02-06T17:51:11.028Z,1.72
2023-02-06T17:53:39.067Z,1.74
2023-02-06T17:56:07.294Z,1.71
2023-02-06T17:58:35.043Z,1.78
2023-02-06T18:01:03.964Z,1.65
2023-02-06T18:03:31.553Z,1.62
2023-02-06T18:05:59.641Z,1.62
2023-02-06T18:08:27.848Z,1.70
2023-02-06T18:10:55.985Z,1.59
2023-02-06T18:13:24.313Z,1.56
2023-02-06T18:15:52.941Z,1.61
2023-02-06T18:18:22.520Z,1.57
2023-02-06T18:20:50.273Z,1.50
2023-02-06T18:23:19.146Z,1.38
2023-02-06T18:25:46.991Z,1.20
2023-02-06T18:28:16.281Z,1.04
2023-02-06T18:30:43.949Z,0.96
2023-02-06T18:33:12.676Z,0.89
2023-02-06T18:35:44.237Z,0.91
2023-02-06T18:38:12.229Z,0.94
2023-02-06T18:40:40.957Z,0.84
2023-02-06T18:43:07.856Z,0.69
2023-02-06T18:45:38.185Z,0.60
2023-02-06T18:48:07.880Z,0.52
2023-02-06T18:50:36.512Z,0.57
2023-02-06T18:53:05.593Z,0.51
2023-02-06T18:55:34.799Z,0.57
2023-02-06T18:58:02.921Z,0.67
2023-02-06T19:00:30.606Z,0.65
2023-02-06T19:02:59.179Z,0.70
2023-02-06T19:05:28.879Z,0.72
2023-02-06T19:07:56.439Z,0.72
2023-02-06T19:10:25.791Z,0.72
2023-02-06T19:12:53.342Z,0.55
2023-02-06T19:15:21.115Z,0.51
2023-02-06T19:17:49.469Z,0.42
2023-02-06T19:20:17.336Z,0.35
2023-02-06T19:22:44.847Z,0.31
2023-02-06T19:25:14.546Z,0.38
2023-02-06T19:27:43.813Z,0.44
2023-02-06T19:30:13.532Z,0.45
2023-02-06T19:32:41.166Z,0.49
2023-02-06T19:35:09.155Z,0.49
2023-02-06T19:37:36.749Z,0.56
2023-02-06T19:40:04.571Z,0.53
2023-02-06T19:42:32.122Z,0.50
2023-02-06T19:45:01.051Z,0.53
2023-02-06T19:47:28.658Z,0.51
2023-02-06T19:49:56.207Z,0.47
2023-02-06T19:52:23.825Z,0.40
2023-02-06T19:54:51.409Z,0.36
2023-02-06T19:57:19.330Z,0.53
2023-02-06T19:59:46.948Z,0.59
2023-02-06T20:02:16.693Z,0.56
2023-02-06T20:04:45.127Z,0.45
2023-02-06T20:07:12.854Z,0.48
2023-02-06T20:09:41.769Z,0.48
2023-02-06T20:12:09.999Z,0.43
2023-02-06T20:14:37.583Z,0.37
2023-02-06T20:17:05.732Z,0.34
2023-02-06T20:19:34.681Z,0.25
2023-02-06T20:22:03.040Z,0.30
2023-02-06T20:24:32.457Z,0.19
2023-02-06T20:27:05.577Z,0.19
2023-02-06T20:29:35.691Z,0.13
2023-02-06T20:32:04.398Z,0.20
2023-02-06T20:34:32.178Z,0.22
2023-02-06T20:37:01.573Z,0.14
2023-02-06T20:39:30.244Z,0.05
2023-02-06T20:41:57.838Z,0.00
2023-02-06T20:44:26.180Z,-0.03
2023-02-06T20:46:54.056Z,0.03
2023-02-06T20:49:23.814Z,0.05
2023-02-06T20:51:51.566Z,0.03
2023-02-06T20:54:21.511Z,0.00
2023-02-06T20:56:49.620Z,-0.01
2023-02-06T20:59:19.507Z,-0.07
2023-02-06T21:01:47.512Z,-0.08
2023-02-06T21:04:16.573Z,-0.24
2023-02-06T21:06:44.482Z,-0.12
2023-02-06T21:09:12.740Z,-0.11
2023-02-06T21:11:44.195Z,-0.13
2023-02-06T21:14:13.054Z,-0.15
2023-02-06T21:16:41.141Z,-0.13
2023-02-06T21:19:11.376Z,-0.10
2023-02-06T21:21:39.493Z,-0.09
2023-02-06T21:24:08.534Z,-0.03
2023-02-06T21:26:37.027Z,-0.05
2023-02-06T21:29:07.668Z,-0.05
2023-02-06T21:31:38.800Z,0.07
2023-02-06T21:34:09.020Z,0.07
2023-02-06T21:36:38.891Z,0.07
2023-02-06T21:39:07.696Z,0.19
2023-02-06T21:41:35.614Z,0.08
2023-02-06T21:44:03.375Z,0.12
2023-02-06T21:46:33.316Z,0.02
2023-02-06T21:49:00.984Z,0.02
2023-02-06T21:51:28.854Z,0.06
2023-02-06T21:53:56.912Z,0.09
2023-02-06T21:56:27.018Z,0.17
2023-02-06T21:58:54.669Z,0.18
2023-02-06T22:01:24.757Z,0.11
2023-02-06T22:03:54.247Z,0.05
2023-02-06T22:06:22.266Z,0.03
2023-02-06T22:08:52.439Z,0.04
2023-02-06T22:11:22.069Z,-0.02
2023-02-06T22:13:50.569Z,0.03
2023-02-06T22:16:22.088Z,0.06
2023-02-06T22:18:49.787Z,0.14
2023-02-06T22:21:20.956Z,0.06
2023-02-06T22:23:49.953Z,0.08
2023-02-06T22:26:19.712Z,-0.01
2023-02-06T22:28:47.503Z,-0.03
2023-02-06T22:31:18.136Z,-0.15
2023-02-06T22:33:46.031Z,-0.12
2023-02-06T22:36:15.944Z,-0.19
2023-02-06T22:38:46.644Z,-0.19
2023-02-06T22:41:16.402Z,-0.25
2023-02-06T22:43:45.676Z,-0.19
2023-02-06T22:46:18.806Z,-0.17
2023-02-06T22:48:46.429Z,-0.12
2023-02-06T22:51:14.018Z,-0.15
2023-02-06T22:53:42.346Z,-0.16
2023-02-06T22:56:31.104Z,-0.21
2023-02-06T22:59:00.561Z,-0.24
2023-02-06T23:01:30.500Z,-0.20
2023-02-06T23:03:58.738Z,-0.16
2023-02-06T23:06:27.559Z,-0.22
2023-02-06T23:08:56.346Z,-0.26
2023-02-06T23:11:26.219Z,-0.20
2023-02-06T23:13:54.862Z,-0.08
2023-02-06T23:16:23.200Z,-0.10
2023-02-06T23:18:51.635Z,-0.21
2023-02-06T23:21:21.320Z,-0.25
2023-02-06T23:23:49.342Z,-0.27
2023-02-06T23:26:19.594Z,-0.27
2023-02-06T23:28:48.560Z,-0.28
2023-02-06T23:31:16.528Z,-0.20
2023-02-06T23:33:44.219Z,-0.26
2023-02-06T23:36:14.542Z,-0.27
2023-02-06T23:38:43.209Z,-0.28
2023-02-06T23:41:13.024Z,-0.33
2023-02-06T23:43:40.823Z,-0.28
2023-02-06T23:46:12.389Z,-0.37
2023-02-06T23:48:40.663Z,-0.37
2023-02-06T23:51:08.534Z,-0.46
2023-02-06T23:53:36.089Z,-0.47
2023-02-06T23:56:11.004Z,-0.43
2023-02-06T23:58:38.613Z,-0.38
